TimeCDT,TemperatureF,Dew PointF,Humidity,Sea Level PressureIn,VisibilityMPH,Wind Direction,Wind SpeedMPH,Gust SpeedMPH,PrecipitationIn,Events,Conditions,WindDirDegrees,DateUTC
12:15 AM,75.4,53.2,46,29.92,10.0,South,13.8,-,N/A,,Clear,170,2013-07-05 05:15:00
12:35 AM,75.4,53.4,46,29.91,10.0,South,13.8,-,N/A,,Clear,170,2013-07-05 05:35:00
12:55 AM,75.2,53.6,47,29.91,10.0,South,15.0,20.7,N/A,,Clear,170,2013-07-05 05:55:00
1:15 AM,74.5,53.6,48,29.91,10.0,South,12.7,19.6,N/A,,Clear,170,2013-07-05 06:15:00
1:35 AM,73.9,53.8,49,29.91,10.0,South,11.5,16.1,N/A,,Clear,180,2013-07-05 06:35:00
1:55 AM,73.4,54.0,50,29.91,10.0,South,10.4,-,N/A,,Clear,170,2013-07-05 06:55:00
2:15 AM,72.9,54.1,52,29.91,10.0,South,9.2,-,N/A,,Scattered Clouds,170,2013-07-05 07:15:00
2:35 AM,72.9,54.1,52,29.91,10.0,South,9.2,-,N/A,,Scattered Clouds,170,2013-07-05 07:35:00
2:55 AM,72.9,54.1,52,29.91,10.0,South,8.1,-,N/A,,Scattered Clouds,180,2013-07-05 07:55:00
3:15 AM,72.7,54.1,52,29.91,10.0,South,9.2,-,N/A,,Clear,170,2013-07-05 08:15:00
3:35 AM,72.9,54.1,52,29.90,10.0,South,9.2,-,N/A,,Clear,180,2013-07-05 08:35:00
3:55 AM,72.9,54.3,52,29.90,10.0,South,10.4,-,N/A,,Clear,180,2013-07-05 08:55:00
4:15 AM,72.5,54.5,53,29.90,10.0,South,9.2,-,N/A,,Clear,180,2013-07-05 09:15:00
4:35 AM,72.0,54.9,55,29.90,10.0,South,9.2,-,N/A,,Clear,170,2013-07-05 09:35:00
4:55 AM,71.6,55.4,57,29.90,10.0,South,6.9,-,N/A,,Clear,170,2013-07-05 09:55:00
5:15 AM,71.2,55.6,58,29.90,10.0,South,6.9,-,N/A,,Clear,170,2013-07-05 10:15:00
5:35 AM,70.9,55.9,59,29.90,10.0,South,6.9,-,N/A,,Clear,170,2013-07-05 10:35:00
5:55 AM,70.0,56.3,62,29.90,10.0,South,8.1,-,N/A,,Clear,170,2013-07-05 10:55:00
6:15 AM,69.8,56.3,62,29.90,10.0,SSE,6.9,-,N/A,,Clear,160,2013-07-05 11:15:00
6:35 AM,69.6,56.7,63,29.90,10.0,SSE,8.1,-,N/A,,Clear,160,2013-07-05 11:35:00
6:55 AM,70.0,57.2,64,29.90,10.0,SSE,8.1,-,N/A,,Scattered Clouds,160,2013-07-05 11:55:00
7:15 AM,71.2,57.7,62,29.90,10.0,South,9.2,-,N/A,,Scattered Clouds,170,2013-07-05 12:15:00
7:35 AM,71.1,58.1,63,29.90,10.0,South,6.9,-,N/A,,Scattered Clouds,170,2013-07-05 12:35:00
7:55 AM,71.6,58.3,63,29.91,10.0,South,5.8,-,N/A,,Clear,170,2013-07-05 12:55:00
8:15 AM,72.5,58.6,62,29.91,10.0,South,9.2,-,N/A,,Clear,180,2013-07-05 13:15:00
8:35 AM,72.7,58.8,62,29.91,10.0,South,11.5,17.3,N/A,,Clear,180,2013-07-05 13:35:00
8:55 AM,73.0,59.0,61,29.91,10.0,South,12.7,16.1,N/A,,Light Drizzle,180,2013-07-05 13:55:00
9:15 AM,73.8,58.5,59,29.91,10.0,South,13.8,18.4,N/A,,Clear,180,2013-07-05 14:15:00
9:35 AM,75.4,58.8,56,29.91,10.0,South,13.8,-,N/A,,Clear,180,2013-07-05 14:35:00
9:55 AM,77.0,58.8,53,29.90,10.0,South,16.1,20.7,N/A,,Clear,190,2013-07-05 14:55:00
10:15 AM,77.5,58.6,52,29.90,10.0,South,19.6,25.3,N/A,,Clear,180,2013-07-05 15:15:00
10:35 AM,81.3,58.8,46,29.90,10.0,South,18.4,28.8,N/A,,Clear,180,2013-07-05 15:35:00
10:55 AM,83.3,58.1,42,29.90,10.0,South,20.7,27.6,N/A,,Clear,190,2013-07-05 15:55:00
11:15 AM,84.4,56.5,38,29.90,10.0,South,20.7,29.9,N/A,,Clear,190,2013-07-05 16:15:00
11:35 AM,85.3,56.1,37,29.89,10.0,South,20.7,29.9,N/A,,Clear,190,2013-07-05 16:35:00
11:55 AM,87.1,55.2,34,29.89,10.0,South,20.7,28.8,N/A,,Clear,190,2013-07-05 16:55:00
12:15 PM,88.0,54.1,31,29.89,10.0,SSW,18.4,26.5,N/A,,Clear,200,2013-07-05 17:15:00
12:35 PM,89.1,54.5,31,29.88,10.0,South,13.8,25.3,N/A,,Clear,180,2013-07-05 17:35:00
12:55 PM,89.4,54.1,30,29.88,10.0,South,16.1,24.2,N/A,,Clear,190,2013-07-05 17:55:00
1:15 PM,90.0,52.9,28,29.88,10.0,South,20.7,24.2,N/A,,Clear,180,2013-07-05 18:15:00
1:35 PM,90.5,54.1,29,29.87,10.0,South,18.4,26.5,N/A,,Clear,190,2013-07-05 18:35:00
1:55 PM,90.9,53.6,28,29.87,10.0,South,19.6,27.6,N/A,,Clear,170,2013-07-05 18:55:00
2:15 PM,91.4,53.6,28,29.86,10.0,SSW,17.3,24.2,N/A,,Clear,200,2013-07-05 19:15:00
2:35 PM,91.8,52.7,26,29.86,10.0,South,18.4,23.0,N/A,,Clear,170,2013-07-05 19:35:00
2:55 PM,91.4,52.7,27,29.85,10.0,South,16.1,25.3,N/A,,Clear,170,2013-07-05 19:55:00
3:15 PM,92.3,52.3,26,29.85,10.0,South,18.4,27.6,N/A,,Clear,170,2013-07-05 20:15:00
3:35 PM,92.3,52.2,25,29.85,10.0,SSE,20.7,27.6,N/A,,Clear,160,2013-07-05 20:35:00
3:55 PM,92.5,53.2,26,29.84,10.0,South,15.0,25.3,N/A,,Clear,170,2013-07-05 20:55:00
4:15 PM,92.8,52.7,26,29.84,10.0,South,16.1,25.3,N/A,,Clear,170,2013-07-05 21:15:00
4:35 PM,92.3,51.4,25,29.84,10.0,South,12.7,21.9,N/A,,Clear,180,2013-07-05 21:35:00
4:55 PM,92.5,51.8,25,29.83,10.0,South,16.1,24.2,N/A,,Clear,170,2013-07-05 21:55:00
5:15 PM,92.7,50.0,23,29.83,10.0,South,17.3,21.9,N/A,,Clear,180,2013-07-05 22:15:00
5:35 PM,93.2,49.8,23,29.83,10.0,South,18.4,24.2,N/A,,Clear,190,2013-07-05 22:35:00
5:55 PM,93.0,50.2,23,29.82,10.0,South,17.3,25.3,N/A,,Clear,190,2013-07-05 22:55:00
6:15 PM,92.5,50.4,24,29.82,10.0,South,17.3,24.2,N/A,,Clear,190,2013-07-05 23:15:00
6:35 PM,92.3,50.5,24,29.82,10.0,South,17.3,21.9,N/A,,Clear,180,2013-07-05 23:35:00
6:55 PM,90.9,50.0,25,29.82,10.0,South,15.0,20.7,N/A,,Clear,180,2013-07-05 23:55:00
7:15 PM,90.9,51.3,26,29.82,10.0,South,12.7,20.7,N/A,,Clear,170,2013-07-06 00:15:00
7:35 PM,90.0,51.4,27,29.83,10.0,South,10.4,17.3,N/A,,Clear,170,2013-07-06 00:35:00
7:55 PM,88.3,52.3,29,29.83,10.0,South,11.5,-,N/A,,Clear,180,2013-07-06 00:55:00
8:15 PM,86.4,53.4,32,29.83,10.0,SSE,6.9,-,N/A,,Clear,160,2013-07-06 01:15:00
8:35 PM,83.5,55.2,38,29.83,10.0,SSE,6.9,-,N/A,,Clear,150,2013-07-06 01:35:00
8:55 PM,83.3,54.0,36,29.83,10.0,SSE,9.2,-,N/A,,Clear,150,2013-07-06 01:55:00
9:15 PM,83.1,53.2,36,29.83,10.0,SSE,9.2,-,N/A,,Clear,150,2013-07-06 02:15:00
9:35 PM,82.4,52.9,36,29.84,10.0,SSE,11.5,-,N/A,,Clear,150,2013-07-06 02:35:00
9:55 PM,82.6,51.8,34,29.84,10.0,SSE,10.4,-,N/A,,Clear,150,2013-07-06 02:55:00
10:15 PM,82.0,51.3,34,29.85,10.0,SSE,10.4,-,N/A,,Clear,150,2013-07-06 03:15:00
10:35 PM,81.5,51.1,35,29.86,10.0,SSE,8.1,-,N/A,,Clear,150,2013-07-06 03:35:00
10:55 PM,80.6,50.9,35,29.86,10.0,SSE,9.2,-,N/A,,Clear,150,2013-07-06 03:55:00
11:15 PM,80.1,50.5,36,29.87,10.0,SSE,9.2,16.1,N/A,,Clear,150,2013-07-06 04:15:00
11:35 PM,80.1,50.5,36,29.86,10.0,SSE,10.4,18.4,N/A,,Clear,160,2013-07-06 04:35:00
11:55 PM,79.9,50.4,36,29.86,10.0,SSE,16.1,19.6,N/A,,Clear,160,2013-07-06 04:55:00